sensor_id;sensor_type;location;lat;lon;timestamp;P1;durP1;ratioP1;P2;durP2;ratioP2
82372;SDS011;72000;42.828;23.382;2023-11-21T00:00:17;4.53;;;1.30;;
82372;SDS011;72000;42.828;23.382;2023-11-21T00:02:43;3.97;;;1.30;;
82372;SDS011;72000;42.828;23.382;2023-11-21T00:05:11;4.07;;;1.77;;
82372;SDS011;72000;42.828;23.382;2023-11-21T00:07:39;5.80;;;1.42;;
82372;SDS011;72000;42.828;23.382;2023-11-21T00:10:05;6.10;;;1.58;;
82372;SDS011;72000;42.828;23.382;2023-11-21T00:14:58;4.05;;;1.38;;
82372;SDS011;72000;42.828;23.382;2023-11-21T00:17:24;4.40;;;1.42;;
82372;SDS011;72000;42.828;23.382;2023-11-21T00:19:50;3.17;;;1.35;;
82372;SDS011;72000;42.828;23.382;2023-11-21T00:22:17;3.38;;;1.40;;
82372;SDS011;72000;42.828;23.382;2023-11-21T00:24:43;3.55;;;1.42;;
82372;SDS011;72000;42.828;23.382;2023-11-21T00:27:09;3.47;;;1.33;;
82372;SDS011;72000;42.828;23.382;2023-11-21T00:29:35;5.53;;;1.55;;
82372;SDS011;72000;42.828;23.382;2023-11-21T00:32:00;5.05;;;1.50;;
82372;SDS011;72000;42.828;23.382;2023-11-21T00:34:26;4.53;;;1.65;;
82372;SDS011;72000;42.828;23.382;2023-11-21T00:36:51;4.35;;;1.83;;
82372;SDS011;72000;42.828;23.382;2023-11-21T00:39:17;4.60;;;1.70;;
82372;SDS011;72000;42.828;23.382;2023-11-21T00:41:43;4.70;;;1.70;;
82372;SDS011;72000;42.828;23.382;2023-11-21T00:44:10;4.30;;;1.40;;
82372;SDS011;72000;42.828;23.382;2023-11-21T00:46:36;4.05;;;1.30;;
82372;SDS011;72000;42.828;23.382;2023-11-21T00:49:02;2.92;;;1.35;;
82372;SDS011;72000;42.828;23.382;2023-11-21T00:51:29;3.75;;;1.55;;
82372;SDS011;72000;42.828;23.382;2023-11-21T00:53:55;4.22;;;1.38;;
82372;SDS011;72000;42.828;23.382;2023-11-21T00:56:21;5.30;;;1.88;;
82372;SDS011;72000;42.828;23.382;2023-11-21T00:58:46;5.68;;;1.90;;
82372;SDS011;72000;42.828;23.382;2023-11-21T01:01:15;5.82;;;2.13;;
82372;SDS011;72000;42.828;23.382;2023-11-21T01:03:41;6.40;;;2.10;;
82372;SDS011;72000;42.828;23.382;2023-11-21T01:06:07;4.65;;;1.75;;
82372;SDS011;72000;42.828;23.382;2023-11-21T01:08:34;4.57;;;1.60;;
82372;SDS011;72000;42.828;23.382;2023-11-21T01:11:01;3.90;;;1.50;;
82372;SDS011;72000;42.828;23.382;2023-11-21T01:13:27;3.55;;;1.30;;
82372;SDS011;72000;42.828;23.382;2023-11-21T01:15:53;4.97;;;1.88;;
82372;SDS011;72000;42.828;23.382;2023-11-21T01:18:19;8.02;;;2.78;;
82372;SDS011;72000;42.828;23.382;2023-11-21T01:20:44;7.53;;;3.25;;
82372;SDS011;72000;42.828;23.382;2023-11-21T01:23:12;7.50;;;2.95;;
82372;SDS011;72000;42.828;23.382;2023-11-21T01:25:38;10.55;;;4.20;;
82372;SDS011;72000;42.828;23.382;2023-11-21T01:28:04;8.45;;;3.25;;
82372;SDS011;72000;42.828;23.382;2023-11-21T01:30:30;7.95;;;3.45;;
82372;SDS011;72000;42.828;23.382;2023-11-21T01:32:57;7.80;;;3.50;;
82372;SDS011;72000;42.828;23.382;2023-11-21T01:35:23;9.18;;;3.80;;
82372;SDS011;72000;42.828;23.382;2023-11-21T01:37:49;8.95;;;3.58;;
82372;SDS011;72000;42.828;23.382;2023-11-21T01:40:14;7.65;;;3.15;;
82372;SDS011;72000;42.828;23.382;2023-11-21T01:42:40;8.63;;;3.58;;
82372;SDS011;72000;42.828;23.382;2023-11-21T01:45:09;9.43;;;3.70;;
82372;SDS011;72000;42.828;23.382;2023-11-21T01:47:35;6.93;;;3.25;;
82372;SDS011;72000;42.828;23.382;2023-11-21T01:50:02;7.82;;;3.30;;
82372;SDS011;72000;42.828;23.382;2023-11-21T01:52:29;7.55;;;3.00;;
82372;SDS011;72000;42.828;23.382;2023-11-21T01:54:56;8.68;;;3.13;;
82372;SDS011;72000;42.828;23.382;2023-11-21T01:57:23;7.45;;;2.90;;
82372;SDS011;72000;42.828;23.382;2023-11-21T01:59:48;8.45;;;3.15;;
82372;SDS011;72000;42.828;23.382;2023-11-21T02:02:15;7.18;;;2.90;;
82372;SDS011;72000;42.828;23.382;2023-11-21T02:04:41;7.75;;;2.80;;
82372;SDS011;72000;42.828;23.382;2023-11-21T02:07:06;7.30;;;2.90;;
82372;SDS011;72000;42.828;23.382;2023-11-21T02:09:32;10.57;;;3.20;;
82372;SDS011;72000;42.828;23.382;2023-11-21T02:12:03;8.73;;;3.60;;
82372;SDS011;72000;42.828;23.382;2023-11-21T02:14:29;13.23;;;4.78;;
82372;SDS011;72000;42.828;23.382;2023-11-21T02:16:56;10.48;;;4.57;;
82372;SDS011;72000;42.828;23.382;2023-11-21T02:19:26;12.13;;;5.22;;
82372;SDS011;72000;42.828;23.382;2023-11-21T02:21:52;12.90;;;5.22;;
82372;SDS011;72000;42.828;23.382;2023-11-21T02:24:21;11.90;;;5.43;;
82372;SDS011;72000;42.828;23.382;2023-11-21T02:26:48;12.43;;;6.03;;
82372;SDS011;72000;42.828;23.382;2023-11-21T02:29:19;11.35;;;5.53;;
82372;SDS011;72000;42.828;23.382;2023-11-21T02:31:53;13.30;;;5.45;;
82372;SDS011;72000;42.828;23.382;2023-11-21T02:34:20;12.77;;;5.57;;
82372;SDS011;72000;42.828;23.382;2023-11-21T02:36:46;13.50;;;5.55;;
82372;SDS011;72000;42.828;23.382;2023-11-21T02:39:15;12.15;;;5.50;;
82372;SDS011;72000;42.828;23.382;2023-11-21T02:41:41;13.55;;;5.68;;
82372;SDS011;72000;42.828;23.382;2023-11-21T02:44:08;12.38;;;4.80;;
82372;SDS011;72000;42.828;23.382;2023-11-21T02:46:34;14.07;;;5.20;;
82372;SDS011;72000;42.828;23.382;2023-11-21T02:49:00;13.40;;;5.30;;
82372;SDS011;72000;42.828;23.382;2023-11-21T02:51:27;10.98;;;5.43;;
82372;SDS011;72000;42.828;23.382;2023-11-21T02:53:52;14.70;;;6.15;;
82372;SDS011;72000;42.828;23.382;2023-11-21T02:56:18;15.85;;;5.88;;
82372;SDS011;72000;42.828;23.382;2023-11-21T02:58:43;12.75;;;5.80;;
82372;SDS011;72000;42.828;23.382;2023-11-21T03:01:09;13.20;;;5.60;;
82372;SDS011;72000;42.828;23.382;2023-11-21T03:03:36;12.23;;;5.35;;
82372;SDS011;72000;42.828;23.382;2023-11-21T03:06:04;13.77;;;5.07;;
82372;SDS011;72000;42.828;23.382;2023-11-21T03:08:31;11.75;;;4.97;;
82372;SDS011;72000;42.828;23.382;2023-11-21T03:10:57;14.10;;;5.72;;
82372;SDS011;72000;42.828;23.382;2023-11-21T03:13:23;14.77;;;5.72;;
82372;SDS011;72000;42.828;23.382;2023-11-21T03:15:49;14.10;;;5.38;;
82372;SDS011;72000;42.828;23.382;2023-11-21T03:18:15;13.35;;;5.32;;
82372;SDS011;72000;42.828;23.382;2023-11-21T03:20:40;13.32;;;5.75;;
82372;SDS011;72000;42.828;23.382;2023-11-21T03:23:06;16.08;;;6.28;;
82372;SDS011;72000;42.828;23.382;2023-11-21T03:25:32;14.35;;;5.90;;
82372;SDS011;72000;42.828;23.382;2023-11-21T03:27:57;14.15;;;5.93;;
82372;SDS011;72000;42.828;23.382;2023-11-21T03:30:23;12.68;;;5.18;;
82372;SDS011;72000;42.828;23.382;2023-11-21T03:32:48;12.38;;;4.50;;
82372;SDS011;72000;42.828;23.382;2023-11-21T03:35:14;15.48;;;5.35;;
82372;SDS011;72000;42.828;23.382;2023-11-21T03:37:40;15.63;;;6.10;;
82372;SDS011;72000;42.828;23.382;2023-11-21T03:42:34;14.07;;;5.20;;
82372;SDS011;72000;42.828;23.382;2023-11-21T03:44:59;13.75;;;4.97;;
82372;SDS011;72000;42.828;23.382;2023-11-21T03:47:26;12.05;;;5.13;;
82372;SDS011;72000;42.828;23.382;2023-11-21T03:49:53;13.30;;;5.53;;
82372;SDS011;72000;42.828;23.382;2023-11-21T03:52:18;12.98;;;5.45;;
82372;SDS011;72000;42.828;23.382;2023-11-21T03:54:44;15.20;;;4.97;;
82372;SDS011;72000;42.828;23.382;2023-11-21T03:57:10;15.18;;;5.10;;
82372;SDS011;72000;42.828;23.382;2023-11-21T03:59:36;11.88;;;4.80;;
82372;SDS011;72000;42.828;23.382;2023-11-21T04:02:06;9.98;;;4.40;;
82372;SDS011;72000;42.828;23.382;2023-11-21T04:06:59;9.95;;;4.18;;
82372;SDS011;72000;42.828;23.382;2023-11-21T04:09:24;12.52;;;4.35;;
82372;SDS011;72000;42.828;23.382;2023-11-21T04:11:53;10.55;;;4.55;;
82372;SDS011;72000;42.828;23.382;2023-11-21T04:14:19;12.23;;;5.20;;
82372;SDS011;72000;42.828;23.382;2023-11-21T04:16:45;11.18;;;4.63;;
82372;SDS011;72000;42.828;23.382;2023-11-21T04:19:10;12.95;;;5.13;;
82372;SDS011;72000;42.828;23.382;2023-11-21T04:21:36;13.07;;;5.00;;
82372;SDS011;72000;42.828;23.382;2023-11-21T04:24:02;12.23;;;4.65;;
82372;SDS011;72000;42.828;23.382;2023-11-21T04:26:28;10.75;;;4.57;;
82372;SDS011;72000;42.828;23.382;2023-11-21T04:28:54;11.95;;;4.25;;
82372;SDS011;72000;42.828;23.382;2023-11-21T04:31:19;10.90;;;4.35;;
82372;SDS011;72000;42.828;23.382;2023-11-21T04:33:45;9.63;;;4.20;;
82372;SDS011;72000;42.828;23.382;2023-11-21T04:36:11;12.15;;;3.88;;
82372;SDS011;72000;42.828;23.382;2023-11-21T04:38:36;8.90;;;3.83;;
82372;SDS011;72000;42.828;23.382;2023-11-21T04:41:02;8.80;;;3.60;;
82372;SDS011;72000;42.828;23.382;2023-11-21T04:43:27;8.90;;;3.75;;
82372;SDS011;72000;42.828;23.382;2023-11-21T04:45:54;9.05;;;3.70;;
82372;SDS011;72000;42.828;23.382;2023-11-21T04:48:20;11.40;;;4.00;;
82372;SDS011;72000;42.828;23.382;2023-11-21T04:50:45;10.90;;;4.00;;
82372;SDS011;72000;42.828;23.382;2023-11-21T04:53:11;9.90;;;4.13;;
82372;SDS011;72000;42.828;23.382;2023-11-21T04:55:40;10.93;;;4.22;;
82372;SDS011;72000;42.828;23.382;2023-11-21T04:58:06;10.63;;;4.35;;
82372;SDS011;72000;42.828;23.382;2023-11-21T05:00:33;10.10;;;4.25;;
82372;SDS011;72000;42.828;23.382;2023-11-21T05:02:59;11.13;;;4.05;;
82372;SDS011;72000;42.828;23.382;2023-11-21T05:05:26;10.48;;;4.13;;
82372;SDS011;72000;42.828;23.382;2023-11-21T05:07:52;12.90;;;4.35;;
82372;SDS011;72000;42.828;23.382;2023-11-21T05:10:18;11.95;;;4.50;;
82372;SDS011;72000;42.828;23.382;2023-11-21T05:12:44;9.85;;;3.72;;
82372;SDS011;72000;42.828;23.382;2023-11-21T05:15:13;10.07;;;4.20;;
82372;SDS011;72000;42.828;23.382;2023-11-21T05:17:40;10.13;;;4.00;;
82372;SDS011;72000;42.828;23.382;2023-11-21T05:20:15;9.07;;;4.05;;
82372;SDS011;72000;42.828;23.382;2023-11-21T05:22:47;10.35;;;4.38;;
82372;SDS011;72000;42.828;23.382;2023-11-21T05:25:15;9.32;;;3.70;;
82372;SDS011;72000;42.828;23.382;2023-11-21T05:27:47;10.85;;;3.85;;
82372;SDS011;72000;42.828;23.382;2023-11-21T05:30:13;9.40;;;4.15;;
82372;SDS011;72000;42.828;23.382;2023-11-21T05:32:39;9.52;;;3.88;;
82372;SDS011;72000;42.828;23.382;2023-11-21T05:35:07;10.73;;;4.20;;
82372;SDS011;72000;42.828;23.382;2023-11-21T05:37:37;10.10;;;4.20;;
82372;SDS011;72000;42.828;23.382;2023-11-21T05:40:04;8.15;;;3.75;;
82372;SDS011;72000;42.828;23.382;2023-11-21T05:42:31;10.85;;;3.88;;
82372;SDS011;72000;42.828;23.382;2023-11-21T05:44:57;8.77;;;3.42;;
82372;SDS011;72000;42.828;23.382;2023-11-21T05:47:24;9.18;;;3.63;;
82372;SDS011;72000;42.828;23.382;2023-11-21T05:49:51;8.70;;;3.75;;
82372;SDS011;72000;42.828;23.382;2023-11-21T05:52:17;7.13;;;3.13;;
82372;SDS011;72000;42.828;23.382;2023-11-21T05:54:43;8.27;;;3.33;;
82372;SDS011;72000;42.828;23.382;2023-11-21T05:57:09;8.65;;;3.25;;
82372;SDS011;72000;42.828;23.382;2023-11-21T05:59:34;8.15;;;3.30;;
82372;SDS011;72000;42.828;23.382;2023-11-21T06:02:00;8.55;;;3.38;;
82372;SDS011;72000;42.828;23.382;2023-11-21T06:04:25;9.93;;;3.75;;
82372;SDS011;72000;42.828;23.382;2023-11-21T06:06:51;9.48;;;3.60;;
82372;SDS011;72000;42.828;23.382;2023-11-21T06:09:18;10.48;;;3.88;;
82372;SDS011;72000;42.828;23.382;2023-11-21T06:11:44;9.30;;;3.50;;
82372;SDS011;72000;42.828;23.382;2023-11-21T06:14:09;9.07;;;3.80;;
82372;SDS011;72000;42.828;23.382;2023-11-21T06:16:36;10.30;;;4.20;;
82372;SDS011;72000;42.828;23.382;2023-11-21T06:19:01;9.70;;;4.10;;
82372;SDS011;72000;42.828;23.382;2023-11-21T06:21:27;12.65;;;5.03;;
82372;SDS011;72000;42.828;23.382;2023-11-21T06:23:52;12.32;;;4.93;;
82372;SDS011;72000;42.828;23.382;2023-11-21T06:26:18;13.07;;;4.70;;
82372;SDS011;72000;42.828;23.382;2023-11-21T06:28:44;12.95;;;4.53;;
82372;SDS011;72000;42.828;23.382;2023-11-21T06:31:10;14.52;;;5.13;;
82372;SDS011;72000;42.828;23.382;2023-11-21T06:33:35;15.27;;;6.65;;
82372;SDS011;72000;42.828;23.382;2023-11-21T06:36:01;10.50;;;3.90;;
82372;SDS011;72000;42.828;23.382;2023-11-21T06:38:31;9.02;;;3.90;;
82372;SDS011;72000;42.828;23.382;2023-11-21T06:40:57;9.40;;;4.03;;
82372;SDS011;72000;42.828;23.382;2023-11-21T06:43:23;8.32;;;3.70;;
82372;SDS011;72000;42.828;23.382;2023-11-21T06:45:49;11.05;;;3.65;;
82372;SDS011;72000;42.828;23.382;2023-11-21T06:48:15;11.65;;;4.00;;
82372;SDS011;72000;42.828;23.382;2023-11-21T06:50:40;9.20;;;4.07;;
82372;SDS011;72000;42.828;23.382;2023-11-21T06:53:07;10.82;;;4.63;;
82372;SDS011;72000;42.828;23.382;2023-11-21T06:55:33;13.73;;;5.15;;
82372;SDS011;72000;42.828;23.382;2023-11-21T06:57:59;12.15;;;5.53;;
82372;SDS011;72000;42.828;23.382;2023-11-21T07:00:25;13.80;;;5.32;;
82372;SDS011;72000;42.828;23.382;2023-11-21T07:02:53;12.70;;;4.63;;
82372;SDS011;72000;42.828;23.382;2023-11-21T07:05:20;12.43;;;5.30;;
82372;SDS011;72000;42.828;23.382;2023-11-21T07:07:46;11.90;;;4.93;;
82372;SDS011;72000;42.828;23.382;2023-11-21T07:10:13;11.23;;;4.55;;
82372;SDS011;72000;42.828;23.382;2023-11-21T07:12:39;10.48;;;4.68;;
82372;SDS011;72000;42.828;23.382;2023-11-21T07:15:05;11.07;;;4.75;;
82372;SDS011;72000;42.828;23.382;2023-11-21T07:17:34;13.77;;;5.60;;
82372;SDS011;72000;42.828;23.382;2023-11-21T07:20:01;14.98;;;6.00;;
82372;SDS011;72000;42.828;23.382;2023-11-21T07:22:27;13.98;;;5.70;;
82372;SDS011;72000;42.828;23.382;2023-11-21T07:24:52;12.50;;;5.88;;
82372;SDS011;72000;42.828;23.382;2023-11-21T07:27:18;20.92;;;7.20;;
82372;SDS011;72000;42.828;23.382;2023-11-21T07:29:44;13.05;;;5.75;;
82372;SDS011;72000;42.828;23.382;2023-11-21T07:32:10;16.40;;;5.97;;
82372;SDS011;72000;42.828;23.382;2023-11-21T07:34:36;19.15;;;7.85;;
82372;SDS011;72000;42.828;23.382;2023-11-21T07:37:02;22.77;;;9.50;;
82372;SDS011;72000;42.828;23.382;2023-11-21T07:39:28;24.13;;;10.45;;
82372;SDS011;72000;42.828;23.382;2023-11-21T07:41:53;25.23;;;10.85;;
82372;SDS011;72000;42.828;23.382;2023-11-21T07:44:19;31.85;;;13.35;;
82372;SDS011;72000;42.828;23.382;2023-11-21T07:46:45;33.97;;;13.82;;
82372;SDS011;72000;42.828;23.382;2023-11-21T07:49:11;38.30;;;15.15;;
82372;SDS011;72000;42.828;23.382;2023-11-21T07:51:41;22.83;;;10.27;;
82372;SDS011;72000;42.828;23.382;2023-11-21T07:54:07;29.85;;;11.57;;
82372;SDS011;72000;42.828;23.382;2023-11-21T07:56:33;32.80;;;12.93;;
82372;SDS011;72000;42.828;23.382;2023-11-21T07:58:58;26.10;;;11.48;;
82372;SDS011;72000;42.828;23.382;2023-11-21T08:01:24;28.48;;;11.18;;
82372;SDS011;72000;42.828;23.382;2023-11-21T08:03:50;25.20;;;11.48;;
82372;SDS011;72000;42.828;23.382;2023-11-21T08:06:17;31.17;;;12.77;;
82372;SDS011;72000;42.828;23.382;2023-11-21T08:08:42;29.25;;;11.63;;
82372;SDS011;72000;42.828;23.382;2023-11-21T08:11:08;25.33;;;11.52;;
82372;SDS011;72000;42.828;23.382;2023-11-21T08:13:35;30.70;;;13.43;;
82372;SDS011;72000;42.828;23.382;2023-11-21T08:16:00;34.88;;;14.45;;
82372;SDS011;72000;42.828;23.382;2023-11-21T08:18:30;33.92;;;13.85;;
82372;SDS011;72000;42.828;23.382;2023-11-21T08:20:55;32.88;;;14.55;;
82372;SDS011;72000;42.828;23.382;2023-11-21T08:23:21;32.65;;;14.65;;
82372;SDS011;72000;42.828;23.382;2023-11-21T08:25:53;32.13;;;15.25;;
82372;SDS011;72000;42.828;23.382;2023-11-21T08:28:19;31.88;;;13.35;;
82372;SDS011;72000;42.828;23.382;2023-11-21T08:30:47;29.42;;;13.45;;
82372;SDS011;72000;42.828;23.382;2023-11-21T08:33:13;32.67;;;13.45;;
82372;SDS011;72000;42.828;23.382;2023-11-21T08:35:38;36.00;;;14.73;;
82372;SDS011;72000;42.828;23.382;2023-11-21T08:38:04;31.85;;;14.25;;
82372;SDS011;72000;42.828;23.382;2023-11-21T08:40:29;28.70;;;13.38;;
82372;SDS011;72000;42.828;23.382;2023-11-21T08:42:55;30.60;;;12.70;;
82372;SDS011;72000;42.828;23.382;2023-11-21T08:45:21;28.60;;;13.52;;
82372;SDS011;72000;42.828;23.382;2023-11-21T08:47:47;27.52;;;12.88;;
82372;SDS011;72000;42.828;23.382;2023-11-21T08:50:13;25.35;;;12.10;;
82372;SDS011;72000;42.828;23.382;2023-11-21T08:52:40;29.83;;;13.30;;
82372;SDS011;72000;42.828;23.382;2023-11-21T08:55:06;29.23;;;13.35;;
82372;SDS011;72000;42.828;23.382;2023-11-21T08:57:38;27.73;;;12.40;;
82372;SDS011;72000;42.828;23.382;2023-11-21T09:00:04;31.80;;;12.38;;
82372;SDS011;72000;42.828;23.382;2023-11-21T09:02:33;25.52;;;11.93;;
82372;SDS011;72000;42.828;23.382;2023-11-21T09:04:59;29.10;;;12.05;;
82372;SDS011;72000;42.828;23.382;2023-11-21T09:07:28;26.38;;;11.55;;
82372;SDS011;72000;42.828;23.382;2023-11-21T09:09:54;24.00;;;11.18;;
82372;SDS011;72000;42.828;23.382;2023-11-21T09:12:20;29.05;;;12.05;;
82372;SDS011;72000;42.828;23.382;2023-11-21T09:17:12;30.58;;;12.48;;
82372;SDS011;72000;42.828;23.382;2023-11-21T09:19:39;31.65;;;13.77;;
82372;SDS011;72000;42.828;23.382;2023-11-21T09:22:05;29.60;;;13.82;;
82372;SDS011;72000;42.828;23.382;2023-11-21T09:24:31;29.10;;;13.38;;
82372;SDS011;72000;42.828;23.382;2023-11-21T09:26:57;26.85;;;12.98;;
82372;SDS011;72000;42.828;23.382;2023-11-21T09:29:23;30.45;;;13.73;;
82372;SDS011;72000;42.828;23.382;2023-11-21T09:31:48;29.40;;;13.50;;
82372;SDS011;72000;42.828;23.382;2023-11-21T09:34:16;29.05;;;13.60;;
82372;SDS011;72000;42.828;23.382;2023-11-21T09:36:44;28.10;;;13.35;;
82372;SDS011;72000;42.828;23.382;2023-11-21T09:39:10;29.63;;;13.27;;
82372;SDS011;72000;42.828;23.382;2023-11-21T09:41:50;29.85;;;14.57;;
82372;SDS011;72000;42.828;23.382;2023-11-21T09:44:18;28.33;;;12.70;;
82372;SDS011;72000;42.828;23.382;2023-11-21T09:46:44;29.02;;;12.15;;
82372;SDS011;72000;42.828;23.382;2023-11-21T09:49:14;23.67;;;11.05;;
82372;SDS011;72000;42.828;23.382;2023-11-21T09:51:43;22.58;;;10.68;;
82372;SDS011;72000;42.828;23.382;2023-11-21T09:54:10;22.58;;;10.43;;
82372;SDS011;72000;42.828;23.382;2023-11-21T09:56:39;22.92;;;9.75;;
82372;SDS011;72000;42.828;23.382;2023-11-21T09:59:05;21.27;;;9.05;;
82372;SDS011;72000;42.828;23.382;2023-11-21T10:01:34;21.98;;;9.45;;
82372;SDS011;72000;42.828;23.382;2023-11-21T10:04:01;20.67;;;10.02;;
82372;SDS011;72000;42.828;23.382;2023-11-21T10:06:26;21.17;;;10.30;;
82372;SDS011;72000;42.828;23.382;2023-11-21T10:08:54;22.40;;;11.05;;
82372;SDS011;72000;42.828;23.382;2023-11-21T10:11:23;23.15;;;10.82;;
82372;SDS011;72000;42.828;23.382;2023-11-21T10:13:52;20.63;;;10.02;;
82372;SDS011;72000;42.828;23.382;2023-11-21T10:16:19;20.88;;;9.80;;
82372;SDS011;72000;42.828;23.382;2023-11-21T10:18:52;20.98;;;9.27;;
82372;SDS011;72000;42.828;23.382;2023-11-21T10:21:20;20.20;;;9.98;;
82372;SDS011;72000;42.828;23.382;2023-11-21T10:23:46;22.38;;;10.10;;
82372;SDS011;72000;42.828;23.382;2023-11-21T10:26:12;19.25;;;9.68;;
82372;SDS011;72000;42.828;23.382;2023-11-21T10:29:02;18.73;;;9.52;;
82372;SDS011;72000;42.828;23.382;2023-11-21T10:31:30;18.65;;;8.60;;
82372;SDS011;72000;42.828;23.382;2023-11-21T10:34:16;17.10;;;8.32;;
82372;SDS011;72000;42.828;23.382;2023-11-21T10:36:42;16.63;;;7.75;;
82372;SDS011;72000;42.828;23.382;2023-11-21T10:39:08;16.65;;;6.97;;
82372;SDS011;72000;42.828;23.382;2023-11-21T10:41:35;16.42;;;7.18;;
82372;SDS011;72000;42.828;23.382;2023-11-21T10:44:04;14.20;;;7.57;;
82372;SDS011;72000;42.828;23.382;2023-11-21T10:46:31;14.15;;;6.53;;
82372;SDS011;72000;42.828;23.382;2023-11-21T10:48:57;16.10;;;6.43;;
82372;SDS011;72000;42.828;23.382;2023-11-21T10:51:22;13.60;;;6.47;;
82372;SDS011;72000;42.828;23.382;2023-11-21T10:53:54;14.57;;;7.00;;
82372;SDS011;72000;42.828;23.382;2023-11-21T10:56:19;16.17;;;6.93;;
82372;SDS011;72000;42.828;23.382;2023-11-21T10:58:49;12.88;;;6.50;;
82372;SDS011;72000;42.828;23.382;2023-11-21T11:01:18;13.98;;;6.15;;
82372;SDS011;72000;42.828;23.382;2023-11-21T11:03:46;14.20;;;6.20;;
82372;SDS011;72000;42.828;23.382;2023-11-21T11:06:12;14.35;;;6.03;;
82372;SDS011;72000;42.828;23.382;2023-11-21T11:08:39;14.55;;;6.25;;
82372;SDS011;72000;42.828;23.382;2023-11-21T11:11:05;13.85;;;5.50;;
82372;SDS011;72000;42.828;23.382;2023-11-21T11:13:31;11.18;;;5.43;;
82372;SDS011;72000;42.828;23.382;2023-11-21T11:16:00;12.23;;;5.60;;
82372;SDS011;72000;42.828;23.382;2023-11-21T11:18:32;13.57;;;6.22;;
82372;SDS011;72000;42.828;23.382;2023-11-21T11:21:05;16.73;;;6.50;;
82372;SDS011;72000;42.828;23.382;2023-11-21T11:26:42;12.13;;;5.63;;
82372;SDS011;72000;42.828;23.382;2023-11-21T11:29:21;12.05;;;5.80;;
82372;SDS011;72000;42.828;23.382;2023-11-21T11:34:30;11.93;;;5.78;;
82372;SDS011;72000;42.828;23.382;2023-11-21T11:37:00;15.63;;;6.53;;
82372;SDS011;72000;42.828;23.382;2023-11-21T11:39:30;14.05;;;6.35;;
82372;SDS011;72000;42.828;23.382;2023-11-21T11:41:58;15.65;;;7.15;;
82372;SDS011;72000;42.828;23.382;2023-11-21T11:49:59;12.15;;;5.93;;
82372;SDS011;72000;42.828;23.382;2023-11-21T11:52:47;14.50;;;6.15;;
82372;SDS011;72000;42.828;23.382;2023-11-21T11:55:14;14.20;;;5.97;;
82372;SDS011;72000;42.828;23.382;2023-11-21T11:57:45;14.40;;;6.53;;
82372;SDS011;72000;42.828;23.382;2023-11-21T12:00:16;15.85;;;7.18;;
82372;SDS011;72000;42.828;23.382;2023-11-21T12:02:47;17.23;;;6.88;;
82372;SDS011;72000;42.828;23.382;2023-11-21T12:05:14;15.02;;;7.70;;
82372;SDS011;72000;42.828;23.382;2023-11-21T12:07:54;17.77;;;8.13;;
82372;SDS011;72000;42.828;23.382;2023-11-21T12:10:26;25.08;;;8.98;;
82372;SDS011;72000;42.828;23.382;2023-11-21T12:12:57;25.77;;;10.60;;
82372;SDS011;72000;42.828;23.382;2023-11-21T12:15:24;34.00;;;12.18;;
82372;SDS011;72000;42.828;23.382;2023-11-21T12:17:52;42.00;;;14.98;;
82372;SDS011;72000;42.828;23.382;2023-11-21T12:20:18;41.33;;;14.77;;
82372;SDS011;72000;42.828;23.382;2023-11-21T12:22:54;36.17;;;14.00;;
82372;SDS011;72000;42.828;23.382;2023-11-21T12:25:25;31.42;;;13.00;;
82372;SDS011;72000;42.828;23.382;2023-11-21T12:27:57;25.05;;;10.90;;
82372;SDS011;72000;42.828;23.382;2023-11-21T12:30:25;20.20;;;9.00;;
82372;SDS011;72000;42.828;23.382;2023-11-21T12:32:54;19.42;;;8.93;;
82372;SDS011;72000;42.828;23.382;2023-11-21T12:35:24;18.42;;;8.00;;
82372;SDS011;72000;42.828;23.382;2023-11-21T12:37:52;18.08;;;8.52;;
82372;SDS011;72000;42.828;23.382;2023-11-21T12:40:18;15.43;;;7.93;;
82372;SDS011;72000;42.828;23.382;2023-11-21T12:42:45;13.88;;;5.47;;
82372;SDS011;72000;42.828;23.382;2023-11-21T12:45:27;9.05;;;4.20;;
82372;SDS011;72000;42.828;23.382;2023-11-21T12:47:57;10.13;;;3.78;;
82372;SDS011;72000;42.828;23.382;2023-11-21T12:50:26;7.45;;;3.45;;
82372;SDS011;72000;42.828;23.382;2023-11-21T12:53:00;10.05;;;4.63;;
82372;SDS011;72000;42.828;23.382;2023-11-21T12:55:31;10.63;;;4.75;;
82372;SDS011;72000;42.828;23.382;2023-11-21T12:57:57;8.85;;;3.60;;
82372;SDS011;72000;42.828;23.382;2023-11-21T13:00:32;8.07;;;2.75;;
82372;SDS011;72000;42.828;23.382;2023-11-21T13:03:02;5.97;;;2.65;;
82372;SDS011;72000;42.828;23.382;2023-11-21T13:07:58;5.70;;;2.60;;
82372;SDS011;72000;42.828;23.382;2023-11-21T13:10:28;5.57;;;2.30;;
82372;SDS011;72000;42.828;23.382;2023-11-21T13:12:59;7.53;;;3.35;;
82372;SDS011;72000;42.828;23.382;2023-11-21T13:15:28;19.15;;;6.88;;
82372;SDS011;72000;42.828;23.382;2023-11-21T13:17:57;17.30;;;7.75;;
82372;SDS011;72000;42.828;23.382;2023-11-21T13:20:23;11.73;;;4.88;;
82372;SDS011;72000;42.828;23.382;2023-11-21T13:22:52;7.97;;;3.65;;
82372;SDS011;72000;42.828;23.382;2023-11-21T13:25:22;9.55;;;3.40;;
82372;SDS011;72000;42.828;23.382;2023-11-21T13:27:56;5.88;;;2.65;;
82372;SDS011;72000;42.828;23.382;2023-11-21T13:30:23;5.35;;;1.80;;
82372;SDS011;72000;42.828;23.382;2023-11-21T13:32:55;6.30;;;1.80;;
82372;SDS011;72000;42.828;23.382;2023-11-21T13:35:29;3.60;;;1.48;;
82372;SDS011;72000;42.828;23.382;2023-11-21T13:38:07;4.97;;;1.58;;
82372;SDS011;72000;42.828;23.382;2023-11-21T13:40:34;5.47;;;1.77;;
82372;SDS011;72000;42.828;23.382;2023-11-21T13:43:10;4.72;;;1.70;;
82372;SDS011;72000;42.828;23.382;2023-11-21T13:45:40;4.50;;;1.50;;
82372;SDS011;72000;42.828;23.382;2023-11-21T13:48:07;4.40;;;1.63;;
82372;SDS011;72000;42.828;23.382;2023-11-21T13:50:45;5.03;;;1.80;;
82372;SDS011;72000;42.828;23.382;2023-11-21T13:53:23;4.05;;;2.00;;
82372;SDS011;72000;42.828;23.382;2023-11-21T13:55:49;10.00;;;3.65;;
82372;SDS011;72000;42.828;23.382;2023-11-21T13:58:20;8.73;;;2.80;;
82372;SDS011;72000;42.828;23.382;2023-11-21T14:00:57;5.43;;;2.00;;
82372;SDS011;72000;42.828;23.382;2023-11-21T14:03:23;9.45;;;3.72;;
82372;SDS011;72000;42.828;23.382;2023-11-21T14:05:57;4.53;;;1.90;;
82372;SDS011;72000;42.828;23.382;2023-11-21T14:08:25;3.85;;;1.70;;
82372;SDS011;72000;42.828;23.382;2023-11-21T14:10:57;6.13;;;2.25;;
82372;SDS011;72000;42.828;23.382;2023-11-21T14:13:24;14.57;;;6.07;;
82372;SDS011;72000;42.828;23.382;2023-11-21T14:15:50;17.98;;;8.45;;
82372;SDS011;72000;42.828;23.382;2023-11-21T14:18:23;22.08;;;10.32;;
82372;SDS011;72000;42.828;23.382;2023-11-21T14:20:56;26.52;;;10.55;;
82372;SDS011;72000;42.828;23.382;2023-11-21T14:23:21;23.88;;;11.15;;
82372;SDS011;72000;42.828;23.382;2023-11-21T14:25:48;25.83;;;11.55;;
82372;SDS011;72000;42.828;23.382;2023-11-21T14:28:15;25.13;;;12.43;;
82372;SDS011;72000;42.828;23.382;2023-11-21T14:30:41;28.80;;;12.48;;
82372;SDS011;72000;42.828;23.382;2023-11-21T14:33:07;27.55;;;12.60;;
82372;SDS011;72000;42.828;23.382;2023-11-21T14:35:35;26.70;;;12.77;;
82372;SDS011;72000;42.828;23.382;2023-11-21T14:38:01;27.55;;;13.35;;
82372;SDS011;72000;42.828;23.382;2023-11-21T14:40:32;33.45;;;13.20;;
82372;SDS011;72000;42.828;23.382;2023-11-21T14:43:00;29.38;;;13.07;;
82372;SDS011;72000;42.828;23.382;2023-11-21T14:45:27;29.60;;;12.82;;
82372;SDS011;72000;42.828;23.382;2023-11-21T14:47:54;28.48;;;12.63;;